Longmont, CO (80501)

03:16 PM MDT die 01o April, anno 2015 (GMT -0600)
Northridge Elementary School | | Change Station
CLOSE
Current Station
Personal Weather Stations
Location: Longmont, CO
Elevation: 5043 ft
Nearby Weather Stations

Elev 5043 ft 40.19 °N, 105.11 °W | Updated 0 second ago

Serena
Serena
74.3 °F
Feels Like 75 °F
N
0.0
Ventus Variabilis Ventus from Inter Austrum et Eurum
Gusts 0.0 mph

Hodie
High -- | Low -- °F
--% Chance of Precip.
Yesterday
High -- | Low -- °F
Precip. -- in
6:44 AM 7:24 PM
Waxing Gibbous, 94% visible
Pressio 29.72 in
Visibilitas 10.0 milia passuum
Clouds Serena
Index Caloris 75 °F
Frigus in quo Ros apparet 27 °F
Umor 17%
Rainfall 0.00 in
Snow Depth Not available.
UV 1.5 out of 12
Pollen 11.10 out of 12
Air Quality Not available.
Flu Activity Not available.
METAR KLMO 012055Z AUTO 25005G15KT 10SM CLR 23/M05 A2972 RMK AO2 T02251049

More Conditions Fewer Conditions

Pressio 29.72 in
Visibilitas 10.0 milia passuum
Clouds Serena
Index Caloris 75 °F
Frigus in quo Ros apparet 27 °F
Umor 17%
Rainfall 0.00 in
Snow Depth Not available.
UV 1.5 out of 12
Pollen 11.10 out of 12
Air Quality Not available.
Flu Activity Not available.
METAR KLMO 012055Z AUTO 25005G15KT 10SM CLR 23/M05 A2972 RMK AO2 T02251049

More Conditions Fewer Conditions

10-Day Weather Forecast

Almanac

Astronomy

Apr. 01, 2015 Rise Set
Actual Time
Civil Twilight
Nautical Twilight
Astronomical Twilight
Moon
Length Of Visible Light
Length of Day
Tomorrow will be .
, % of the Moon is Illuminated

Today's Extremes

State Highs State Lows

Community

WunderPhotos

Upload Photos

1,810,088 photos uploaded!

WunderBlogs® & News

Nearby

Air Quality

  Air Quality AQ Index Pollutant
Not available.

Snow Depth

Station Depth Elevation

Earthquake Activity

City Distance Mag. Time & Date
Minimum magnitude displayed is 2.5.

Coastal Water Temperatures

Locus Calor

Stations

Nearby Weather Stations

Station Location Temp Frigus Venti Frigus in quo Ros apparet Umor Ventus Precip. Elev Renovata Type